Time;durP1;ratioP1;P1;durP2;ratioP2;P2;SDS_P1;SDS_P2;PMS_P1;PMS_P2;Temp;Humidity;BMP_temperature;BMP_pressure;BME280_temperature;BME280_humidity;BME280_pressure;Samples;Min_cycle;Max_cycle;Signal;HPM_P1;HPM_P2
2021/08/04 00:02:49;;;;;;;4.47;2.80;;;22.10;69.10;;;;;;6234763;28;20034;-75
2021/08/04 00:05:49;;;;;;;7.10;3.00;;;22.00;69.20;;;;;;6225515;28;20344;-75
2021/08/04 00:08:50;;;;;;;5.78;2.97;;;22.00;69.20;;;;;;6225334;28;20040;-76
2021/08/04 00:11:52;;;;;;;5.57;2.63;;;22.00;69.30;;;;;;6225083;28;20363;-76
2021/08/04 00:14:53;;;;;;;5.22;3.10;;;21.90;69.30;;;;;;6217247;28;20045;-73
2021/08/04 00:17:54;;;;;;;3.72;2.70;;;21.90;69.30;;;;;;6240773;28;20042;-75
2021/08/04 00:20:55;;;;;;;5.15;2.95;;;21.90;69.30;;;;;;6241543;28;20352;-75
2021/08/04 00:23:56;;;;;;;4.95;3.05;;;21.90;69.30;;;;;;6225680;28;20423;-75
2021/08/04 00:26:57;;;;;;;3.50;2.78;;;21.90;69.30;;;;;;6225833;28;20510;-75
2021/08/04 00:29:58;;;;;;;4.85;2.75;;;21.90;69.20;;;;;;6241454;28;20121;-76
2021/08/04 00:32:59;;;;;;;5.97;3.17;;;21.90;69.20;;;;;;6242059;28;20045;-75
2021/08/04 00:36:00;;;;;;;6.30;2.75;;;21.90;69.30;;;;;;6240798;28;20102;-77
2021/08/04 00:39:02;;;;;;;5.03;2.90;;;21.90;69.30;;;;;;6224219;28;20045;-76
2021/08/04 00:42:04;;;;;;;4.03;2.58;;;21.90;69.30;;;;;;6241117;28;20489;-75
2021/08/04 00:45:05;;;;;;;4.70;2.72;;;21.90;69.30;;;;;;6240546;28;20112;-76
2021/08/04 00:48:07;;;;;;;3.80;2.60;;;21.90;69.30;;;;;;6224439;28;20045;-76
2021/08/04 00:51:09;;;;;;;4.85;2.80;;;21.90;69.40;;;;;;6240950;28;20045;-75
2021/08/04 00:54:10;;;;;;;4.38;2.95;;;21.90;69.50;;;;;;6225504;28;20034;-77
2021/08/04 00:57:11;;;;;;;6.97;2.80;;;21.90;69.60;;;;;;6240750;28;20044;-74
2021/08/04 01:00:13;;;;;;;4.78;2.65;;;21.90;69.70;;;;;;6240333;28;20200;-75
2021/08/04 01:03:20;;;;;;;3.90;2.55;;;21.80;69.60;;;;;;6223921;28;20030;-75
2021/08/04 01:06:39;;;;;;;3.53;2.50;;;21.80;69.70;;;;;;6240043;28;20037;-74
2021/08/04 01:10:03;;;;;;;3.33;2.40;;;21.80;69.70;;;;;;6240398;28;20038;-73
2021/08/04 01:13:27;;;;;;;3.95;2.85;;;21.90;69.70;;;;;;6121777;28;20043;-75
2021/08/04 01:16:33;;;;;;;4.97;3.03;;;21.80;69.60;;;;;;6133048;28;20118;-75
2021/08/04 01:19:34;;;;;;;3.55;2.45;;;21.90;69.50;;;;;;6148579;28;20543;-75
2021/08/04 01:22:56;;;;;;;6.13;2.42;;;21.90;69.60;;;;;;6152100;28;20035;-75
2021/08/04 01:26:23;;;;;;;8.05;2.40;;;21.90;69.60;;;;;;6148696;28;20042;-75
2021/08/04 01:29:26;;;;;;;5.95;2.78;;;21.90;69.50;;;;;;6147787;28;20035;-76
2021/08/04 01:32:28;;;;;;;5.20;2.55;;;21.90;69.50;;;;;;6146709;28;20046;-76
2021/08/04 01:35:30;;;;;;;4.70;2.75;;;21.80;69.40;;;;;;6132459;28;20039;-75
2021/08/04 01:38:32;;;;;;;7.43;3.33;;;21.90;69.50;;;;;;6132585;28;20475;-76
2021/08/04 01:41:35;;;;;;;4.88;3.30;;;21.90;69.70;;;;;;6148590;28;20042;-77
2021/08/04 01:44:38;;;;;;;5.60;3.50;;;21.80;69.90;;;;;;6147376;28;20110;-75
2021/08/04 01:47:42;;;;;;;5.18;3.30;;;21.90;69.90;;;;;;6147930;28;20047;-75
2021/08/04 01:50:44;;;;;;;5.93;3.00;;;21.90;69.80;;;;;;6218082;28;20034;-76
2021/08/04 01:53:46;;;;;;;6.05;3.47;;;21.80;69.80;;;;;;6237951;28;20107;-75
2021/08/04 01:56:48;;;;;;;6.00;3.83;;;21.80;69.90;;;;;;6235816;28;20351;-76
2021/08/04 01:59:49;;;;;;;5.22;3.00;;;21.80;70.10;;;;;;6237371;28;20038;-73
2021/08/04 02:02:50;;;;;;;4.15;3.13;;;21.70;70.20;;;;;;6237950;28;20455;-73
2021/08/04 02:05:52;;;;;;;4.22;2.90;;;21.70;70.30;;;;;;6237580;28;20109;-74
2021/08/04 02:09:00;;;;;;;6.25;2.75;;;21.70;70.20;;;;;;6221085;28;20191;-73
2021/08/04 02:12:03;;;;;;;5.03;2.72;;;21.70;70.00;;;;;;6236795;28;20069;-74
2021/08/04 02:15:06;;;;;;;4.00;2.30;;;21.70;70.00;;;;;;6237008;28;20113;-75
2021/08/04 02:18:09;;;;;;;3.83;2.30;;;21.70;70.00;;;;;;6237285;28;20045;-73
2021/08/04 02:21:13;;;;;;;3.10;2.20;;;21.60;70.00;;;;;;6237230;28;20033;-74
2021/08/04 02:24:17;;;;;;;3.97;2.28;;;21.70;70.00;;;;;;6237429;28;20033;-74
2021/08/04 02:27:19;;;;;;;4.82;1.92;;;21.70;69.80;;;;;;6221246;28;20034;-74
2021/08/04 02:30:20;;;;;;;3.88;1.95;;;21.70;69.80;;;;;;6223593;28;20030;-74
2021/08/04 02:33:22;;;;;;;5.03;2.00;;;21.70;69.70;;;;;;6237296;28;20081;-73
2021/08/04 02:36:23;;;;;;;3.50;2.20;;;21.70;69.70;;;;;;6224178;28;20104;-74
2021/08/04 02:39:25;;;;;;;4.13;2.42;;;21.70;69.70;;;;;;6238338;28;20053;-74
2021/08/04 02:42:27;;;;;;;5.85;2.75;;;21.60;69.50;;;;;;6221986;28;20038;-73
2021/08/04 02:45:28;;;;;;;5.43;2.97;;;21.60;69.50;;;;;;6222048;28;20038;-76
2021/08/04 02:48:29;;;;;;;4.32;2.88;;;21.60;69.60;;;;;;6222557;28;20080;-73
2021/08/04 02:51:31;;;;;;;4.28;2.88;;;21.60;69.60;;;;;;6221219;28;20124;-74
2021/08/04 02:54:32;;;;;;;3.90;2.70;;;21.60;69.70;;;;;;6238179;28;20148;-74
2021/08/04 02:57:34;;;;;;;6.20;3.10;;;21.50;69.80;;;;;;6222527;28;20070;-74
2021/08/04 03:00:35;;;;;;;7.63;3.22;;;21.50;70.70;;;;;;6237753;28;20485;-74
2021/08/04 03:03:36;;;;;;;5.45;3.30;;;21.50;69.80;;;;;;6224564;28;20482;-74
2021/08/04 03:06:38;;;;;;;6.60;3.42;;;21.50;69.90;;;;;;6223066;28;20037;-74
2021/08/04 03:09:39;;;;;;;10.35;3.45;;;21.50;70.00;;;;;;6223024;28;20121;-74
2021/08/04 03:12:40;;;;;;;5.70;3.45;;;21.50;70.00;;;;;;6222763;28;20049;-74
2021/08/04 03:15:41;;;;;;;5.70;2.95;;;21.50;69.90;;;;;;6239689;28;20041;-74
2021/08/04 03:18:42;;;;;;;6.03;3.53;;;21.50;70.00;;;;;;6237805;28;20081;-74
2021/08/04 03:21:44;;;;;;;5.85;3.60;;;21.50;70.00;;;;;;6237482;28;20045;-74
2021/08/04 03:24:45;;;;;;;4.80;3.10;;;21.50;70.20;;;;;;6221734;28;20081;-74
2021/08/04 03:27:47;;;;;;;6.45;3.70;;;21.40;70.30;;;;;;6240336;28;20454;-74
2021/08/04 03:30:48;;;;;;;3.10;2.50;;;21.40;70.40;;;;;;6227645;28;20120;-74
2021/08/04 03:33:48;;;;;;;4.03;2.55;;;21.40;70.30;;;;;;6243572;28;20360;-74
2021/08/04 03:36:50;;;;;;;5.60;2.88;;;21.40;70.30;;;;;;6226030;28;20034;-74
2021/08/04 03:39:51;;;;;;;4.63;2.55;;;21.50;70.30;;;;;;6227392;28;20084;-74
2021/08/04 03:42:51;;;;;;;4.63;2.60;;;21.50;70.20;;;;;;6227241;28;20034;-74
2021/08/04 03:45:52;;;;;;;6.13;2.78;;;21.50;70.00;;;;;;6225934;28;20053;-74
2021/08/04 03:48:53;;;;;;;8.32;2.95;;;21.50;69.90;;;;;;6225570;28;20034;-74
2021/08/04 03:51:55;;;;;;;6.15;3.13;;;21.50;69.80;;;;;;6226736;28;20037;-73
2021/08/04 03:54:56;;;;;;;4.85;3.28;;;21.50;69.80;;;;;;6242144;28;20045;-73
2021/08/04 03:57:57;;;;;;;4.78;2.78;;;21.50;69.80;;;;;;6226580;28;20463;-73
2021/08/04 04:00:58;;;;;;;4.82;2.85;;;21.50;69.80;;;;;;6226693;28;20048;-75
2021/08/04 04:03:59;;;;;;;6.70;2.88;;;21.50;69.80;;;;;;6242724;28;20030;-74
2021/08/04 04:07:00;;;;;;;4.80;2.75;;;21.50;69.80;;;;;;6226759;28;20108;-74
2021/08/04 04:10:02;;;;;;;6.45;3.05;;;21.50;69.80;;;;;;6224170;28;20033;-74
2021/08/04 04:13:03;;;;;;;8.15;2.95;;;21.50;69.70;;;;;;6225175;28;20042;-74
2021/08/04 04:16:04;;;;;;;7.75;3.30;;;21.50;69.70;;;;;;6241323;28;20033;-74
2021/08/04 04:19:07;;;;;;;6.53;3.20;;;21.50;69.70;;;;;;6225086;28;20057;-74
2021/08/04 04:22:08;;;;;;;8.02;4.07;;;21.50;69.60;;;;;;6241726;28;20037;-74
2021/08/04 04:25:12;;;;;;;10.93;2.90;;;21.50;69.60;;;;;;6224997;28;20041;-74
2021/08/04 04:28:13;;;;;;;5.68;3.10;;;21.50;69.60;;;;;;6226537;28;20433;-74
2021/08/04 04:31:14;;;;;;;7.80;3.00;;;21.50;69.60;;;;;;6225877;28;20140;-74
2021/08/04 04:34:15;;;;;;;4.70;3.00;;;21.60;69.60;;;;;;6226793;28;20064;-74
2021/08/04 04:37:16;;;;;;;4.13;2.67;;;21.50;69.50;;;;;;6226674;28;20160;-74
2021/08/04 04:40:17;;;;;;;4.18;2.75;;;21.50;69.70;;;;;;6226947;28;20367;-74
2021/08/04 04:43:18;;;;;;;6.28;2.72;;;21.50;69.80;;;;;;6226718;28;20140;-74
2021/08/04 04:46:19;;;;;;;4.47;2.70;;;21.50;69.80;;;;;;6242013;28;20379;-74
2021/08/04 04:49:21;;;;;;;4.63;2.53;;;21.50;69.70;;;;;;6225656;28;20034;-74
2021/08/04 04:52:21;;;;;;;7.72;3.38;;;21.50;69.90;;;;;;6225526;28;20100;-74
2021/08/04 04:55:23;;;;;;;8.55;2.92;;;21.40;70.00;;;;;;6225034;28;20041;-74
2021/08/04 04:58:24;;;;;;;3.97;2.88;;;21.40;70.10;;;;;;6225760;28;20057;-74
2021/08/04 05:01:25;;;;;;;5.88;2.35;;;21.40;70.20;;;;;;6225522;28;20030;-74
2021/08/04 05:04:26;;;;;;;4.20;2.33;;;21.20;70.10;;;;;;6242951;28;20473;-74
2021/08/04 05:07:27;;;;;;;3.92;1.88;;;21.30;70.20;;;;;;6242101;28;20030;-74
2021/08/04 05:10:28;;;;;;;2.60;1.70;;;21.30;70.30;;;;;;6226509;28;20034;-74
2021/08/04 05:13:29;;;;;;;2.42;1.80;;;21.30;70.30;;;;;;6225796;28;20037;-74
2021/08/04 05:16:30;;;;;;;2.40;2.00;;;21.30;70.40;;;;;;6224729;28;20034;-74
2021/08/04 05:19:31;;;;;;;5.35;2.47;;;21.30;70.40;;;;;;6208396;28;20129;-74
2021/08/04 05:22:32;;;;;;;4.68;1.70;;;21.30;70.30;;;;;;6225795;28;20042;-74
2021/08/04 05:25:33;;;;;;;2.47;1.83;;;21.30;70.40;;;;;;6224604;28;20030;-74
2021/08/04 05:28:34;;;;;;;3.58;1.95;;;21.30;70.20;;;;;;6224524;28;20411;-74
2021/08/04 05:31:35;;;;;;;2.22;1.80;;;21.30;70.00;;;;;;6224177;28;20467;-74
2021/08/04 05:34:36;;;;;;;3.20;1.60;;;21.30;70.00;;;;;;6241630;28;20448;-74
2021/08/04 05:37:37;;;;;;;7.32;2.10;;;21.30;70.10;;;;;;6225751;28;20038;-74
2021/08/04 05:40:38;;;;;;;3.15;2.10;;;21.40;70.20;;;;;;6224326;28;20038;-74
2021/08/04 05:43:39;;;;;;;5.03;2.58;;;21.40;70.30;;;;;;6225571;28;20053;-74
2021/08/04 05:46:41;;;;;;;4.82;1.92;;;21.40;70.20;;;;;;6224219;28;20161;-74
2021/08/04 05:49:43;;;;;;;5.13;2.22;;;21.40;70.20;;;;;;6223628;28;20041;-74
2021/08/04 05:52:44;;;;;;;5.70;2.00;;;21.40;70.20;;;;;;6224067;28;20352;-74
2021/08/04 05:55:45;;;;;;;2.78;1.70;;;21.40;70.20;;;;;;6222758;28;20109;-74
2021/08/04 05:58:47;;;;;;;10.73;2.47;;;21.40;70.00;;;;;;6224517;28;20042;-74
2021/08/04 06:01:49;;;;;;;8.10;1.98;;;21.30;69.90;;;;;;6241398;28;20057;-73
2021/08/04 06:04:50;;;;;;;2.83;1.90;;;21.30;70.00;;;;;;6223098;28;20034;-74
2021/08/04 06:07:51;;;;;;;2.70;2.05;;;21.30;70.00;;;;;;6239786;28;20034;-74
2021/08/04 06:10:52;;;;;;;4.68;1.80;;;21.30;70.00;;;;;;6223432;28;20049;-74
2021/08/04 06:13:53;;;;;;;9.00;2.30;;;21.30;69.90;;;;;;6223786;28;20038;-74
2021/08/04 06:16:54;;;;;;;6.40;2.15;;;21.00;69.80;;;;;;6224487;28;20107;-74
2021/08/04 06:19:55;;;;;;;4.32;2.05;;;21.40;70.00;;;;;;6239970;28;20030;-74
2021/08/04 06:22:56;;;;;;;3.42;2.20;;;21.40;70.00;;;;;;6224356;28;20073;-74
2021/08/04 06:25:57;;;;;;;2.85;2.15;;;21.30;70.00;;;;;;6239991;28;20066;-74
2021/08/04 06:28:58;;;;;;;7.03;2.15;;;21.40;70.00;;;;;;6224262;28;20107;-74
2021/08/04 06:31:59;;;;;;;6.95;2.30;;;21.40;69.80;;;;;;6240315;28;20397;-74
2021/08/04 06:35:02;;;;;;;17.30;2.40;;;21.40;69.70;;;;;;6223220;28;20119;-74
2021/08/04 06:38:03;;;;;;;4.22;1.95;;;21.40;69.80;;;;;;6224449;28;20034;-75
2021/08/04 06:41:04;;;;;;;2.75;1.80;;;21.40;69.60;;;;;;6224254;28;20054;-74
2021/08/04 06:44:05;;;;;;;7.15;2.22;;;21.40;69.50;;;;;;6239499;28;20383;-76
2021/08/04 06:47:07;;;;;;;4.35;1.95;;;21.50;69.50;;;;;;6223694;28;20046;-74
2021/08/04 06:50:08;;;;;;;3.00;1.80;;;21.40;69.30;;;;;;6206574;28;20034;-74
2021/08/04 06:53:09;;;;;;;3.80;2.13;;;21.50;69.40;;;;;;6224088;28;20034;-76
2021/08/04 06:56:10;;;;;;;4.88;2.10;;;21.50;69.50;;;;;;6220859;28;20034;-73
2021/08/04 06:59:11;;;;;;;4.45;2.08;;;21.50;69.40;;;;;;6223499;28;20479;-74
2021/08/04 07:02:12;;;;;;;7.43;2.78;;;21.50;69.30;;;;;;6240205;28;20033;-75
2021/08/04 07:05:17;;;;;;;5.50;2.13;;;21.50;69.20;;;;;;6238987;28;20426;-74
2021/08/04 07:08:19;;;;;;;3.38;2.33;;;21.50;69.20;;;;;;6222617;28;20437;-74
2021/08/04 07:11:22;;;;;;;5.28;2.05;;;21.50;69.40;;;;;;6223794;28;20034;-75
2021/08/04 07:14:23;;;;;;;2.90;1.90;;;21.50;69.40;;;;;;6221508;28;20056;-75
2021/08/04 07:17:24;;;;;;;6.78;2.50;;;21.60;69.50;;;;;;6239175;28;20121;-75
2021/08/04 07:20:25;;;;;;;4.53;2.03;;;21.60;69.60;;;;;;6239958;28;20054;-74
2021/08/04 07:23:26;;;;;;;8.10;2.50;;;21.60;69.50;;;;;;6227340;28;20531;-74
2021/08/04 07:26:27;;;;;;;6.60;2.47;;;21.70;69.50;;;;;;6229375;28;20352;-74
2021/08/04 07:29:28;;;;;;;7.50;2.10;;;21.60;69.10;;;;;;6227946;28;20145;-74
2021/08/04 07:32:29;;;;;;;11.55;3.50;;;21.60;69.20;;;;;;6240234;28;20045;-74
2021/08/04 07:35:30;;;;;;;9.10;2.70;;;21.60;69.30;;;;;;6238845;28;20038;-74
2021/08/04 07:38:32;;;;;;;4.55;2.15;;;21.60;69.40;;;;;;6222210;28;20485;-74
2021/08/04 07:41:33;;;;;;;11.00;2.70;;;21.60;69.60;;;;;;6222145;28;20045;-74
2021/08/04 07:44:35;;;;;;;8.20;2.67;;;21.60;69.60;;;;;;6223302;28;20479;-74
2021/08/04 07:47:37;;;;;;;8.00;2.40;;;21.60;69.60;;;;;;6221862;28;20463;-74
2021/08/04 07:50:39;;;;;;;11.82;3.30;;;21.60;69.70;;;;;;6238337;28;20049;-74
2021/08/04 07:53:40;;;;;;;8.38;2.60;;;21.70;69.70;;;;;;6222233;28;20037;-74
2021/08/04 07:56:41;;;;;;;5.85;2.58;;;21.70;69.70;;;;;;6238515;28;20030;-74
2021/08/04 07:59:42;;;;;;;8.43;3.10;;;21.70;69.60;;;;;;6218657;28;20049;-74
2021/08/04 08:02:43;;;;;;;4.65;2.38;;;21.70;69.60;;;;;;6234171;28;20030;-74
2021/08/04 08:05:44;;;;;;;4.68;2.20;;;21.80;69.60;;;;;;6238376;28;20383;-74
2021/08/04 08:08:45;;;;;;;5.88;2.15;;;21.80;69.80;;;;;;6221878;28;20045;-75
2021/08/04 08:11:50;;;;;;;5.75;3.00;;;21.80;69.30;;;;;;6238311;28;20359;-74
2021/08/04 08:14:51;;;;;;;5.40;2.63;;;21.80;69.20;;;;;;6226193;28;20037;-75
2021/08/04 08:17:52;;;;;;;4.28;2.38;;;21.70;69.20;;;;;;6227204;28;20121;-75
2021/08/04 08:20:53;;;;;;;4.63;2.40;;;21.80;69.30;;;;;;6225707;28;20034;-75
2021/08/04 08:23:54;;;;;;;10.07;2.70;;;21.70;69.30;;;;;;6227169;28;20030;-74
2021/08/04 08:26:55;;;;;;;8.48;2.47;;;21.80;69.30;;;;;;6242253;28;20112;-74
2021/08/04 08:29:56;;;;;;;7.45;2.63;;;21.80;69.30;;;;;;6225616;28;20167;-75
2021/08/04 08:32:57;;;;;;;8.18;2.10;;;21.80;69.10;;;;;;6227808;28;20462;-74
2021/08/04 08:35:58;;;;;;;4.97;2.17;;;21.80;69.00;;;;;;6242083;28;20056;-75
2021/08/04 08:39:01;;;;;;;4.57;2.40;;;21.90;69.10;;;;;;6227135;28;20045;-75
2021/08/04 08:42:03;;;;;;;3.13;1.63;;;21.90;68.80;;;;;;6225382;28;20041;-75
2021/08/04 08:45:05;;;;;;;5.25;2.10;;;21.90;68.70;;;;;;6242567;28;20168;-74
2021/08/04 08:48:07;;;;;;;3.33;1.90;;;21.90;68.60;;;;;;6226400;28;20053;-75
2021/08/04 08:51:09;;;;;;;6.72;2.38;;;21.90;68.60;;;;;;6241870;28;20038;-75
2021/08/04 08:54:10;;;;;;;7.25;1.98;;;22.00;68.50;;;;;;6240751;28;20030;-76
2021/08/04 08:57:11;;;;;;;9.05;2.80;;;22.00;69.00;;;;;;6226271;28;20057;-77
2021/08/04 09:00:13;;;;;;;8.52;3.20;;;22.10;68.20;;;;;;6208606;28;20241;-74
2021/08/04 09:03:18;;;;;;;19.90;9.68;;;22.10;68.20;;;;;;6226161;28;20038;-75
2021/08/04 09:06:37;;;;;;;11.45;5.97;;;22.10;67.90;;;;;;6243400;28;20054;-75
2021/08/04 09:09:38;;;;;;;10.02;3.35;;;22.10;67.80;;;;;;6240808;28;20045;-76
2021/08/04 09:12:50;;;;;;;8.27;3.03;;;22.10;67.70;;;;;;6240870;28;20046;-76
2021/08/04 09:15:51;;;;;;;4.25;3.08;;;22.10;67.60;;;;;;6225903;28;20061;-74
2021/08/04 09:18:52;;;;;;;10.25;2.58;;;22.10;67.60;;;;;;6240801;28;20447;-75
2021/08/04 09:22:17;;;;;;;7.45;2.92;;;22.10;67.70;;;;;;6238808;28;20068;-75
2021/08/04 09:25:18;;;;;;;7.78;3.03;;;22.10;67.70;;;;;;6223393;28;20038;-75
2021/08/04 09:28:19;;;;;;;6.43;2.20;;;22.10;67.70;;;;;;6225130;28;20038;-75
2021/08/04 09:31:21;;;;;;;4.57;2.42;;;22.20;67.80;;;;;;6240236;28;20475;-75
2021/08/04 09:34:27;;;;;;;8.38;4.30;;;22.20;67.80;;;;;;6240500;28;20407;-75
2021/08/04 09:37:28;;;;;;;14.57;5.10;;;22.20;67.70;;;;;;6240356;28;20396;-75
2021/08/04 09:40:33;;;;;;;8.38;3.75;;;22.30;67.60;;;;;;6240680;28;20056;-75
2021/08/04 09:43:34;;;;;;;17.27;6.53;;;22.30;67.60;;;;;;6224174;28;20038;-73
2021/08/04 09:46:38;;;;;;;15.82;7.35;;;22.20;67.40;;;;;;6240816;28;20091;-73
2021/08/04 09:49:43;;;;;;;8.55;3.85;;;22.20;67.40;;;;;;6225433;28;20034;-74
2021/08/04 09:52:57;;;;;;;7.90;3.88;;;22.20;67.70;;;;;;6240682;28;20038;-73
2021/08/04 09:56:13;;;;;;;24.42;10.88;;;22.10;67.80;;;;;;6239758;28;20041;-75
2021/08/04 09:59:16;;;;;;;18.38;8.50;;;22.10;67.80;;;;;;6221175;28;20475;-74
2021/08/04 10:02:28;;;;;;;9.15;4.35;;;22.10;67.80;;;;;;6239680;28;20489;-74
2021/08/04 10:05:29;;;;;;;11.20;3.10;;;22.10;67.90;;;;;;6223572;28;20048;-74
2021/08/04 10:08:30;;;;;;;4.30;3.08;;;22.10;67.90;;;;;;6222140;28;20164;-74
2021/08/04 10:11:32;;;;;;;11.55;4.40;;;22.10;68.20;;;;;;6238750;28;20517;-74
2021/08/04 10:14:34;;;;;;;9.30;4.35;;;22.10;68.40;;;;;;6238426;28;20034;-74
2021/08/04 10:17:36;;;;;;;12.93;5.32;;;22.10;68.40;;;;;;6222902;28;20103;-74
2021/08/04 10:20:38;;;;;;;6.93;2.88;;;22.10;68.40;;;;;;6222100;28;20348;-74
2021/08/04 10:23:44;;;;;;;14.18;6.43;;;22.10;68.50;;;;;;6222764;28;20042;-74
2021/08/04 10:26:46;;;;;;;16.13;7.13;;;22.10;68.60;;;;;;6238289;28;20053;-75
2021/08/04 10:29:47;;;;;;;6.82;3.42;;;22.00;68.80;;;;;;6223427;28;20087;-75
2021/08/04 10:32:49;;;;;;;14.10;6.30;;;22.00;68.90;;;;;;6224257;28;20451;-75
2021/08/04 10:35:53;;;;;;;22.35;11.75;;;22.10;69.00;;;;;;6222495;28;20034;-74
2021/08/04 10:38:58;;;;;;;14.63;5.78;;;22.10;68.90;;;;;;6222850;28;20038;-74
2021/08/04 10:42:04;;;;;;;6.88;3.58;;;22.10;68.90;;;;;;6222391;28;20038;-74
2021/08/04 10:45:23;;;;;;;8.68;3.47;;;22.10;68.90;;;;;;6238849;28;20041;-74
2021/08/04 10:48:25;;;;;;;7.20;2.78;;;22.10;69.00;;;;;;6238365;28;20046;-74
2021/08/04 10:51:26;;;;;;;8.55;4.53;;;22.20;68.80;;;;;;6239684;28;20038;-75
2021/08/04 10:54:32;;;;;;;11.68;5.55;;;22.20;68.70;;;;;;6244990;28;20044;-74
2021/08/04 10:57:35;;;;;;;15.00;6.30;;;22.20;68.60;;;;;;6224226;28;20160;-75
2021/08/04 11:00:38;;;;;;;15.60;7.55;;;22.30;69.30;;;;;;6246095;28;20478;-74
2021/08/04 11:03:43;;;;;;;14.63;4.05;;;22.30;68.30;;;;;;6226888;28;20121;-75
2021/08/04 11:07:08;;;;;;;7.20;2.97;;;22.40;68.20;;;;;;6226014;28;20033;-75
2021/08/04 11:10:09;;;;;;;9.40;3.00;;;22.50;68.10;;;;;;6225687;28;20124;-75
2021/08/04 11:13:10;;;;;;;4.20;2.22;;;22.60;67.10;;;;;;6232130;28;20105;-75
2021/08/04 11:16:28;;;;;;;8.52;3.13;;;22.50;67.70;;;;;;6223157;28;20042;-75
2021/08/04 11:19:34;;;;;;;7.43;3.40;;;22.70;67.80;;;;;;6223908;28;20037;-75
2021/08/04 11:22:35;;;;;;;8.23;3.97;;;22.80;67.20;;;;;;6224567;28;20110;-75
2021/08/04 11:25:42;;;;;;;5.45;3.30;;;22.90;67.00;;;;;;6222408;28;20487;-75
2021/08/04 11:28:45;;;;;;;6.35;2.97;;;23.00;66.80;;;;;;6224334;28;20052;-75
2021/08/04 11:32:26;;;;;;;11.75;3.00;;;23.20;66.40;;;;;;6242971;28;20049;-76
2021/08/04 11:35:27;;;;;;;26.98;9.60;;;23.30;65.90;;;;;;6173300;28;20038;-74
2021/08/04 11:38:44;;;;;;;10.13;4.25;;;23.50;65.60;;;;;;6173210;28;20039;-74
2021/08/04 11:41:49;;;;;;;21.23;12.38;;;23.50;65.30;;;;;;6172992;28;20035;-74
2021/08/04 11:44:51;;;;;;;12.27;5.63;;;23.60;65.10;;;;;;6173101;28;20368;-75
2021/08/04 11:47:52;;;;;;;8.77;3.42;;;23.60;65.00;;;;;;6174850;28;20039;-75
2021/08/04 11:50:53;;;;;;;5.07;2.78;;;23.70;64.70;;;;;;6167547;28;20046;-75
2021/08/04 11:53:58;;;;;;;5.97;2.80;;;23.60;64.70;;;;;;6185596;28;20051;-72
2021/08/04 11:57:00;;;;;;;4.18;2.28;;;23.60;64.80;;;;;;6147708;28;20154;-74
2021/08/04 12:00:09;;;;;;;9.98;2.40;;;23.50;64.70;;;;;;6161532;28;20050;-74
2021/08/04 12:03:18;;;;;;;6.88;2.15;;;23.60;64.80;;;;;;6181615;28;20034;-75
2021/08/04 12:06:20;;;;;;;7.28;3.20;;;23.70;64.80;;;;;;6217431;28;20399;-74
2021/08/04 12:09:32;;;;;;;19.48;7.10;;;23.80;64.70;;;;;;6242094;28;20034;-75
2021/08/04 12:12:41;;;;;;;12.07;4.47;;;23.80;64.50;;;;;;6241141;28;20112;-74
2021/08/04 12:15:42;;;;;;;10.65;3.33;;;23.90;64.60;;;;;;6224903;28;20033;-74
2021/08/04 12:18:49;;;;;;;7.30;2.63;;;23.80;64.20;;;;;;6241623;28;20478;-74
2021/08/04 12:21:50;;;;;;;4.78;2.03;;;23.80;64.00;;;;;;6240814;28;20044;-74
2021/08/04 12:24:53;;;;;;;4.60;3.85;;;23.90;63.90;;;;;;6224761;28;20125;-74
2021/08/04 12:27:57;;;;;;;3.28;2.25;;;24.00;63.90;;;;;;6224741;28;20119;-74
2021/08/04 12:30:58;;;;;;;4.47;1.92;;;24.00;63.70;;;;;;6224620;28;20034;-74
2021/08/04 12:34:07;;;;;;;2.65;1.80;;;24.10;63.60;;;;;;6226451;28;20041;-74
2021/08/04 12:37:10;;;;;;;3.35;1.77;;;24.10;63.50;;;;;;6225081;28;20022;-75
2021/08/04 12:40:14;;;;;;;4.88;2.70;;;24.20;63.50;;;;;;6240664;28;20034;-75
2021/08/04 12:43:16;;;;;;;4.63;2.80;;;24.20;63.40;;;;;;6241155;28;20037;-75
2021/08/04 12:46:26;;;;;;;6.18;2.67;;;24.10;63.50;;;;;;6240332;28;20030;-75
2021/08/04 12:49:28;;;;;;;5.28;2.85;;;24.10;63.90;;;;;;6241403;28;20117;-75
2021/08/04 12:52:38;;;;;;;7.10;3.00;;;24.00;64.20;;;;;;6241350;28;20041;-75
2021/08/04 12:55:39;;;;;;;5.80;3.42;;;24.00;64.60;;;;;;6226157;28;20057;-75
2021/08/04 12:59:00;;;;;;;6.47;2.63;;;24.00;64.60;;;;;;6240851;28;20038;-75
2021/08/04 13:02:12;;;;;;;6.57;2.88;;;23.90;64.40;;;;;;6226692;28;20029;-75
2021/08/04 13:05:13;;;;;;;4.57;2.53;;;23.80;64.40;;;;;;6224361;28;20455;-75
2021/08/04 13:08:34;;;;;;;3.33;2.50;;;23.70;64.60;;;;;;6224531;28;20037;-75
2021/08/04 13:11:35;;;;;;;3.13;1.92;;;23.70;64.80;;;;;;6240546;28;20042;-75
2021/08/04 13:15:06;;;;;;;3.60;2.40;;;23.70;64.80;;;;;;6223311;28;20029;-75
2021/08/04 13:18:08;;;;;;;3.22;2.35;;;23.70;65.00;;;;;;6235860;28;20032;-75
2021/08/04 13:21:13;;;;;;;5.05;2.00;;;23.70;65.10;;;;;;6237055;28;20475;-75
2021/08/04 13:24:31;;;;;;;3.65;2.40;;;23.70;65.20;;;;;;6236548;28;20030;-75
2021/08/04 13:27:36;;;;;;;3.13;2.00;;;23.60;65.10;;;;;;6237977;28;20343;-75
2021/08/04 13:30:43;;;;;;;3.80;1.85;;;23.60;65.00;;;;;;6244512;28;20030;-75
2021/08/04 13:33:48;;;;;;;3.30;2.13;;;23.60;65.30;;;;;;6231446;28;20150;-75
2021/08/04 13:36:53;;;;;;;4.30;2.10;;;23.60;66.10;;;;;;6227866;28;20044;-74
2021/08/04 13:39:54;;;;;;;8.52;2.53;;;23.60;65.30;;;;;;6237513;28;20034;-75
2021/08/04 13:42:56;;;;;;;5.40;2.35;;;23.60;65.30;;;;;;6222283;28;20037;-75
2021/08/04 13:45:58;;;;;;;8.07;2.00;;;23.60;65.40;;;;;;6236786;28;20065;-75
2021/08/04 13:48:59;;;;;;;6.57;2.17;;;23.50;65.60;;;;;;6221342;28;20060;-75
2021/08/04 13:52:02;;;;;;;4.38;1.45;;;23.50;65.60;;;;;;6220859;28;20116;-76
2021/08/04 13:55:06;;;;;;;3.88;2.20;;;23.40;65.70;;;;;;6222641;28;20057;-75
2021/08/04 13:58:08;;;;;;;2.97;1.60;;;23.30;66.00;;;;;;6236667;28;20172;-76
2021/08/04 14:01:09;;;;;;;3.08;1.95;;;23.20;66.20;;;;;;6222316;28;20038;-76
2021/08/04 14:04:10;;;;;;;3.35;2.22;;;23.00;66.50;;;;;;6222117;28;20485;-76
2021/08/04 14:07:13;;;;;;;3.50;2.42;;;22.90;67.00;;;;;;6220682;28;20113;-75
2021/08/04 14:10:20;;;;;;;3.78;2.05;;;22.70;67.80;;;;;;6221962;28;20038;-75
2021/08/04 14:13:21;;;;;;;6.80;2.47;;;22.60;68.30;;;;;;6237968;28;20046;-75
2021/08/04 14:16:24;;;;;;;3.22;1.80;;;22.40;68.60;;;;;;6238797;28;20041;-76
2021/08/04 14:19:25;;;;;;;2.10;1.60;;;22.30;69.30;;;;;;6238715;28;20049;-75
2021/08/04 14:22:26;;;;;;;3.45;1.55;;;22.10;69.70;;;;;;6238706;28;20133;-75
2021/08/04 14:25:27;;;;;;;5.78;3.30;;;22.00;70.10;;;;;;6238519;28;20038;-75
2021/08/04 14:28:28;;;;;;;4.05;2.20;;;22.00;70.60;;;;;;6238143;28;20037;-75
2021/08/04 14:31:30;;;;;;;5.00;2.45;;;21.90;70.90;;;;;;6238167;28;20041;-73
2021/08/04 14:34:31;;;;;;;3.55;2.15;;;21.90;71.10;;;;;;6239017;28;20042;-74
2021/08/04 14:37:33;;;;;;;4.90;2.20;;;21.90;71.30;;;;;;6237869;28;20048;-73
2021/08/04 14:40:34;;;;;;;4.07;1.88;;;21.80;72.30;;;;;;6237883;28;20038;-74
2021/08/04 14:43:35;;;;;;;4.28;1.70;;;21.70;72.30;;;;;;6237947;28;20037;-74
2021/08/04 14:46:36;;;;;;;6.70;1.30;;;21.70;72.00;;;;;;6222891;28;20022;-74
2021/08/04 14:49:37;;;;;;;2.80;1.58;;;21.70;72.20;;;;;;6222874;28;20351;-74
2021/08/04 14:52:38;;;;;;;4.10;1.30;;;21.60;72.30;;;;;;6222606;28;20042;-74
2021/08/04 14:55:39;;;;;;;6.22;1.90;;;21.60;72.60;;;;;;6224025;28;20391;-74
2021/08/04 14:58:41;;;;;;;3.95;1.67;;;21.60;72.50;;;;;;6223576;28;20498;-74
2021/08/04 15:01:42;;;;;;;2.50;1.83;;;21.70;72.70;;;;;;6238995;28;20034;-75
2021/08/04 15:04:43;;;;;;;5.00;1.95;;;21.70;72.70;;;;;;6237941;28;20113;-74
2021/08/04 15:07:45;;;;;;;4.93;2.10;;;21.70;72.70;;;;;;6237888;28;20117;-74
2021/08/04 15:10:47;;;;;;;3.58;2.03;;;21.80;72.80;;;;;;6237538;28;20411;-74
2021/08/04 15:13:48;;;;;;;3.40;1.52;;;21.80;72.80;;;;;;6237471;28;20333;-74
2021/08/04 15:16:49;;;;;;;6.80;1.40;;;21.90;72.70;;;;;;6236558;28;20049;-74
2021/08/04 15:19:50;;;;;;;2.17;1.30;;;21.90;72.50;;;;;;6237562;28;20038;-74
2021/08/04 15:22:51;;;;;;;1.70;1.10;;;22.00;72.30;;;;;;6238744;28;20379;-74
2021/08/04 15:25:52;;;;;;;1.20;1.00;;;22.00;72.20;;;;;;6227095;28;20033;-74
2021/08/04 15:28:54;;;;;;;1.33;1.10;;;22.00;72.10;;;;;;6242476;28;20030;-74
2021/08/04 15:31:56;;;;;;;3.42;1.13;;;22.00;72.10;;;;;;6243200;28;20123;-74
2021/08/04 15:34:57;;;;;;;3.15;1.00;;;22.00;72.00;;;;;;6227175;28;20336;-74
2021/08/04 15:38:00;;;;;;;1.45;0.90;;;22.10;71.90;;;;;;6225603;28;20030;-74
2021/08/04 15:41:01;;;;;;;1.73;0.80;;;22.00;71.80;;;;;;6227036;28;20034;-74
2021/08/04 15:44:03;;;;;;;4.90;2.53;;;22.00;72.00;;;;;;6225622;28;20105;-75
2021/08/04 15:47:04;;;;;;;1.80;1.30;;;22.00;72.20;;;;;;6225289;28;20117;-74
2021/08/04 15:50:07;;;;;;;1.10;1.00;;;22.00;72.10;;;;;;6209311;28;20057;-75
2021/08/04 15:53:08;;;;;;;1.25;1.00;;;22.00;72.10;;;;;;6226532;28;20037;-74